Time;durP1;ratioP1;P1;durP2;ratioP2;P2;SDS_P1;SDS_P2;PMS_P1;PMS_P2;Temp;Humidity;BMP_temperature;BMP_pressure;BME280_temperature;BME280_humidity;BME280_pressure;Samples;Min_cycle;Max_cycle;Signal;HPM_P1;HPM_P2
2023/07/14 00:01:24;;;;;;;3.67;2.10;;;;;;;15.08;100.00;100746.88;4914847;29;20214;-67
2023/07/14 00:03:51;;;;;;;3.97;2.00;;;;;;;15.03;100.00;100742.44;4896358;29;20788;-67
2023/07/14 00:06:19;;;;;;;5.00;2.37;;;;;;;15.07;100.00;100742.44;4914805;29;20235;-69
2023/07/14 00:08:45;;;;;;;4.37;2.30;;;;;;;15.02;100.00;100734.44;4916513;29;20227;-67
2023/07/14 00:11:14;;;;;;;5.97;2.90;;;;;;;15.10;100.00;100729.09;4929445;29;20207;-67
2023/07/14 00:13:41;;;;;;;7.20;2.93;;;;;;;15.29;100.00;100728.25;4920125;29;20203;-69
2023/07/14 00:16:12;;;;;;;9.70;2.83;;;;;;;15.26;100.00;100725.56;4929034;29;20581;-68
2023/07/14 00:18:38;;;;;;;8.30;2.40;;;;;;;15.21;100.00;100721.97;4922855;29;20515;-67
2023/07/14 00:21:04;;;;;;;4.10;2.33;;;;;;;15.19;100.00;100729.09;4928150;29;20199;-71
2023/07/14 00:23:31;;;;;;;7.10;2.60;;;;;;;15.23;100.00;100730.91;4928985;29;20214;-69
2023/07/14 00:25:57;;;;;;;5.10;2.53;;;;;;;15.22;100.00;100724.69;4931362;29;20546;-67
2023/07/14 00:28:24;;;;;;;3.47;2.30;;;;;;;15.34;100.00;100732.69;4931937;29;20231;-66
2023/07/14 00:30:50;;;;;;;6.33;2.30;;;;;;;15.55;100.00;100737.09;4926983;29;20675;-67
2023/07/14 00:33:18;;;;;;;4.53;2.73;;;;;;;15.45;100.00;100731.78;4922083;29;20690;-67
2023/07/14 00:35:49;;;;;;;5.80;2.80;;;;;;;15.32;100.00;100730.91;4928824;29;20524;-69
2023/07/14 00:38:15;;;;;;;5.60;2.73;;;;;;;15.27;100.00;100736.25;4930523;29;20206;-68
2023/07/14 00:40:45;;;;;;;4.37;2.50;;;;;;;15.16;100.00;100729.09;4929920;29;20675;-67
2023/07/14 00:43:19;;;;;;;4.20;2.40;;;;;;;15.13;100.00;100742.44;4928425;29;20231;-68
2023/07/14 00:45:48;;;;;;;3.87;2.20;;;;;;;15.26;100.00;100734.47;4926860;29;20222;-69
2023/07/14 00:48:18;;;;;;;7.60;2.40;;;;;;;15.42;100.00;100732.66;4926223;29;20219;-67
2023/07/14 00:51:03;;;;;;;6.00;2.50;;;;;;;15.56;100.00;100724.63;4931502;29;20207;-68
2023/07/14 00:53:34;;;;;;;4.20;2.43;;;;;;;15.63;100.00;100729.13;4927271;29;20206;-69
2023/07/14 00:56:09;;;;;;;3.47;2.50;;;;;;;15.70;100.00;100727.31;4926872;29;20207;-68
2023/07/14 00:58:38;;;;;;;6.10;2.73;;;;;;;15.76;100.00;100728.19;4920985;29;20198;-68
2023/07/14 01:01:21;;;;;;;5.43;2.57;;;;;;;15.79;100.00;100719.28;4930570;29;20203;-69
2023/07/14 01:03:51;;;;;;;5.20;2.70;;;;;;;15.89;100.00;100726.38;4930036;29;20223;-67
2023/07/14 01:06:21;;;;;;;4.60;2.67;;;;;;;16.03;100.00;100723.69;4930918;29;20247;-67
2023/07/14 01:09:14;;;;;;;3.30;2.40;;;;;;;16.15;100.00;100715.59;4930453;29;20203;-67
2023/07/14 01:11:47;;;;;;;5.27;2.60;;;;;;;16.20;100.00;100717.38;4929078;29;20203;-68
2023/07/14 01:14:23;;;;;;;4.43;2.43;;;;;;;16.32;99.94;100718.19;4931624;29;20242;-67
2023/07/14 01:16:53;;;;;;;3.77;2.40;;;;;;;16.45;98.39;100722.59;4931721;29;20198;-67
2023/07/14 01:19:26;;;;;;;6.93;2.70;;;;;;;16.49;96.84;100717.22;4929547;29;20213;-66
2023/07/14 01:22:02;;;;;;;4.67;2.30;;;;;;;16.49;96.60;100717.22;4924309;29;20676;-67
2023/07/14 01:24:42;;;;;;;4.40;2.67;;;;;;;16.50;95.79;100707.44;4930404;29;20229;-69
2023/07/14 01:27:09;;;;;;;6.90;2.53;;;;;;;16.56;94.56;100718.09;4928701;29;20314;-69
2023/07/14 01:29:37;;;;;;;5.43;2.57;;;;;;;16.57;93.13;100725.22;4929136;29;20203;-67
2023/07/14 01:32:15;;;;;;;4.07;2.50;;;;;;;16.55;93.61;100727.00;4926119;29;20199;-66
2023/07/14 01:34:42;;;;;;;6.03;2.60;;;;;;;16.56;93.18;100723.44;4918878;29;20627;-65
2023/07/14 01:37:08;;;;;;;3.67;2.30;;;;;;;16.58;92.31;100729.66;4924047;29;20204;-67
2023/07/14 01:39:35;;;;;;;3.80;2.30;;;;;;;16.49;91.83;100716.34;4919242;29;20211;-70
2023/07/14 01:42:02;;;;;;;4.07;2.30;;;;;;;16.44;94.44;100719.03;4920818;29;20671;-68
2023/07/14 01:44:28;;;;;;;3.33;2.50;;;;;;;16.35;95.06;100719.06;4924694;29;20305;-68
2023/07/14 01:46:55;;;;;;;5.50;2.30;;;;;;;16.26;95.34;100709.31;4929569;29;20221;-69
2023/07/14 01:49:46;;;;;;;3.50;2.30;;;;;;;16.19;96.00;100718.25;4920195;29;20207;-66
2023/07/14 01:52:18;;;;;;;3.20;2.00;;;;;;;16.14;96.82;100713.84;4926915;29;20202;-70
2023/07/14 01:54:57;;;;;;;5.87;2.57;;;;;;;16.15;96.08;100708.47;4919530;29;20227;-66
2023/07/14 01:57:27;;;;;;;3.97;2.20;;;;;;;16.09;96.68;100702.28;4924232;29;20297;-67
2023/07/14 01:59:59;;;;;;;3.83;2.20;;;;;;;16.11;97.04;100706.72;4927435;29;20233;-66
2023/07/14 02:02:34;;;;;;;4.27;2.90;;;;;;;16.10;96.65;100704.94;4927353;29;20299;-69
2023/07/14 02:05:26;;;;;;;4.87;2.20;;;;;;;16.19;95.45;100699.56;4927234;29;20562;-67
2023/07/14 02:07:55;;;;;;;5.97;2.47;;;;;;;16.29;95.57;100697.72;4900110;29;20658;-67
2023/07/14 02:10:21;;;;;;;3.13;2.03;;;;;;;16.22;97.09;100704.00;4916704;29;20297;-67
2023/07/14 02:12:49;;;;;;;4.23;2.30;;;;;;;15.98;97.95;100707.63;4924831;29;20667;-66
2023/07/14 02:15:26;;;;;;;4.10;2.40;;;;;;;15.76;99.48;100709.50;4914813;29;20248;-68
2023/07/14 02:17:54;;;;;;;4.93;2.47;;;;;;;15.56;100.00;100708.63;4928475;29;20206;-67
2023/07/14 02:20:28;;;;;;;4.07;2.40;;;;;;;15.42;100.00;100705.97;4927985;29;20617;-67
2023/07/14 02:22:57;;;;;;;4.27;2.30;;;;;;;15.36;100.00;100701.53;4910644;29;20298;-68
2023/07/14 02:25:27;;;;;;;3.83;2.13;;;;;;;15.44;100.00;100700.63;4928133;29;20226;-67
2023/07/14 02:27:53;;;;;;;3.37;2.60;;;;;;;15.36;100.00;100698.88;4927606;29;20219;-69
2023/07/14 02:30:26;;;;;;;2.37;1.90;;;;;;;15.16;100.00;100692.63;4925543;29;20671;-66
2023/07/14 02:32:56;;;;;;;4.70;2.20;;;;;;;15.00;100.00;100686.44;4929345;29;20294;-67
2023/07/14 02:35:33;;;;;;;3.50;2.57;;;;;;;14.87;100.00;100692.66;4920337;29;20244;-68
2023/07/14 02:38:04;;;;;;;7.10;2.30;;;;;;;14.80;100.00;100692.63;4924175;29;20225;-67
2023/07/14 02:40:49;;;;;;;3.07;2.07;;;;;;;14.95;100.00;100700.66;4926562;29;20500;-66
2023/07/14 02:43:20;;;;;;;5.00;2.60;;;;;;;14.92;100.00;100685.53;4926590;29;20691;-65
2023/07/14 02:45:58;;;;;;;3.07;2.30;;;;;;;14.82;100.00;100690.88;4933029;29;20250;-66
2023/07/14 02:48:39;;;;;;;4.43;2.57;;;;;;;14.80;100.00;100687.28;4918945;29;20257;-67
2023/07/14 02:51:07;;;;;;;4.97;2.40;;;;;;;14.83;100.00;100693.56;4914066;29;20350;-66
2023/07/14 02:53:33;;;;;;;3.47;2.13;;;;;;;14.77;100.00;100692.63;4922517;29;20215;-67
2023/07/14 02:56:00;;;;;;;4.03;2.20;;;;;;;14.71;100.00;100688.19;4921573;29;20203;-68
2023/07/14 02:58:26;;;;;;;4.23;2.60;;;;;;;14.89;100.00;100690.00;4918840;29;20687;-67
2023/07/14 03:00:53;;;;;;;3.60;2.40;;;;;;;14.92;100.00;100688.22;4922376;29;20654;-68
2023/07/14 03:03:20;;;;;;;7.80;2.70;;;;;;;14.87;100.00;100690.00;4925320;29;20214;-68
2023/07/14 03:05:46;;;;;;;5.17;2.63;;;;;;;14.81;100.00;100695.31;4922588;29;20285;-67
2023/07/14 03:08:16;;;;;;;5.07;2.57;;;;;;;14.80;100.00;100692.63;4925246;29;20226;-67
2023/07/14 03:10:47;;;;;;;5.57;2.70;;;;;;;14.78;100.00;100691.72;4909742;29;20207;-67
2023/07/14 03:13:16;;;;;;;3.73;2.43;;;;;;;14.77;100.00;100692.63;4922548;29;20285;-68
2023/07/14 03:15:43;;;;;;;4.00;2.50;;;;;;;14.68;100.00;100683.72;4924150;29;20222;-68
2023/07/14 03:18:10;;;;;;;5.50;2.40;;;;;;;14.67;100.00;100684.63;4928940;29;20195;-66
2023/07/14 03:20:39;;;;;;;2.73;2.20;;;;;;;14.65;100.00;100681.06;4924740;29;20195;-66
2023/07/14 03:23:06;;;;;;;4.63;2.63;;;;;;;14.62;100.00;100681.06;4925286;29;20261;-68
2023/07/14 03:25:33;;;;;;;4.77;2.60;;;;;;;14.68;100.00;100682.84;4924605;29;20262;-68
2023/07/14 03:28:03;;;;;;;4.17;2.60;;;;;;;14.76;100.00;100691.72;4927299;29;20225;-68
2023/07/14 03:30:39;;;;;;;5.83;2.50;;;;;;;14.94;100.00;100688.22;4922637;29;20202;-65
2023/07/14 03:33:06;;;;;;;6.43;3.30;;;;;;;14.96;100.00;100690.00;4925996;29;20226;-66
2023/07/14 03:35:33;;;;;;;4.07;2.43;;;;;;;15.13;100.00;100692.66;4929654;29;20225;-67
2023/07/14 03:37:59;;;;;;;5.87;2.40;;;;;;;15.18;100.00;100690.84;4927326;29;20199;-67
2023/07/14 03:40:26;;;;;;;6.73;2.80;;;;;;;15.27;100.00;100682.00;4921406;29;20594;-69
2023/07/14 03:42:53;;;;;;;3.40;2.50;;;;;;;15.35;100.00;100682.84;4927890;29;20270;-67
2023/07/14 03:45:19;;;;;;;2.87;2.10;;;;;;;15.28;100.00;100686.44;4932661;29;20313;-69
2023/07/14 03:47:45;;;;;;;4.10;2.50;;;;;;;15.22;100.00;100686.44;4926213;29;20219;-68
2023/07/14 03:50:13;;;;;;;4.80;2.60;;;;;;;15.15;100.00;100690.88;4929562;29;20231;-68
2023/07/14 03:52:41;;;;;;;8.00;2.37;;;;;;;15.13;100.00;100695.31;4930699;29;20211;-70
2023/07/14 03:55:09;;;;;;;4.43;2.43;;;;;;;15.19;100.00;100686.41;4929500;29;20218;-67
2023/07/14 03:57:36;;;;;;;4.93;2.63;;;;;;;15.47;100.00;100697.97;4914093;29;20199;-69
2023/07/14 04:00:23;;;;;;;4.20;2.70;;;;;;;15.53;100.00;100680.13;4930335;29;20206;-67
2023/07/14 04:02:49;;;;;;;3.77;2.27;;;;;;;15.48;100.00;100687.28;4911034;29;20206;-68
2023/07/14 04:05:16;;;;;;;5.23;2.17;;;;;;;15.54;100.00;100684.59;4930288;29;20270;-69
2023/07/14 04:07:43;;;;;;;4.23;2.20;;;;;;;15.56;100.00;100677.47;4928891;29;20301;-68
2023/07/14 04:10:11;;;;;;;3.63;2.60;;;;;;;15.60;100.00;100675.72;4930409;29;20568;-66
2023/07/14 04:12:38;;;;;;;3.60;2.50;;;;;;;15.71;100.00;100673.03;4930364;29;20222;-67
2023/07/14 04:15:05;;;;;;;4.30;2.70;;;;;;;15.71;100.00;100667.69;4927090;29;20269;-66
2023/07/14 04:17:35;;;;;;;5.13;2.30;;;;;;;15.76;100.00;100668.56;4928792;29;20746;-67
2023/07/14 04:20:02;;;;;;;4.00;2.40;;;;;;;15.80;100.00;100671.22;4931107;29;20203;-67
2023/07/14 04:22:28;;;;;;;7.30;2.50;;;;;;;15.79;100.00;100671.22;4928479;29;20285;-68
2023/07/14 04:24:55;;;;;;;6.67;2.60;;;;;;;15.84;100.00;100674.75;4948528;23;20222;-70
2023/07/14 04:27:21;;;;;;;3.93;2.60;;;;;;;15.89;100.00;100667.63;4925907;29;20207;-70
2023/07/14 04:29:47;;;;;;;6.77;2.70;;;;;;;15.99;100.00;100670.22;4928838;29;20206;-69
2023/07/14 04:32:14;;;;;;;4.73;2.40;;;;;;;16.09;100.00;100663.09;4928509;29;20203;-70
2023/07/14 04:34:40;;;;;;;4.93;2.40;;;;;;;16.16;100.00;100663.94;4926455;29;20219;-69
2023/07/14 04:37:07;;;;;;;6.07;2.60;;;;;;;16.24;100.00;100665.69;4927234;29;20715;-70
2023/07/14 04:39:34;;;;;;;5.63;2.40;;;;;;;16.32;100.00;100656.72;4930892;29;20202;-70
2023/07/14 04:42:01;;;;;;;5.83;2.53;;;;;;;16.45;100.00;100653.09;4928800;29;20203;-70
2023/07/14 04:44:27;;;;;;;4.63;2.53;;;;;;;16.61;100.00;100661.00;4928748;29;20331;-73
2023/07/14 04:46:58;;;;;;;4.87;2.33;;;;;;;16.74;100.00;100650.22;4927140;29;20199;-70
2023/07/14 04:49:25;;;;;;;5.17;2.70;;;;;;;16.96;100.00;100657.19;4929530;29;20222;-70
2023/07/14 04:51:51;;;;;;;3.57;2.40;;;;;;;17.15;100.00;100650.78;4927026;29;20671;-71
2023/07/14 04:54:18;;;;;;;5.27;2.60;;;;;;;17.40;100.00;100651.44;4927655;29;20231;-70
2023/07/14 04:56:45;;;;;;;7.13;2.83;;;;;;;17.55;100.00;100655.72;4927191;29;20206;-70
2023/07/14 04:59:11;;;;;;;3.87;2.70;;;;;;;17.63;98.52;100655.66;4929258;29;20195;-72
2023/07/14 05:01:38;;;;;;;6.67;2.63;;;;;;;17.79;97.83;100654.63;4927067;29;20554;-70
2023/07/14 05:04:04;;;;;;;6.83;2.73;;;;;;;17.91;94.94;100651.78;4926971;29;21139;-70
2023/07/14 05:06:31;;;;;;;4.23;2.13;;;;;;;18.09;94.70;100659.59;4929700;29;20195;-70
2023/07/14 05:08:58;;;;;;;12.03;2.87;;;;;;;18.16;92.16;100663.97;4912896;29;20266;-70
2023/07/14 05:11:25;;;;;;;3.10;2.50;;;;;;;18.28;91.28;100662.03;4926501;29;20680;-70
2023/07/14 05:13:53;;;;;;;4.73;2.57;;;;;;;18.40;90.78;100659.16;4933983;29;20195;-70
2023/07/14 05:16:19;;;;;;;5.53;2.77;;;;;;;18.39;89.49;100663.63;4917000;29;20215;-70
2023/07/14 05:18:46;;;;;;;5.27;2.30;;;;;;;18.29;89.36;100659.31;4930112;29;20191;-71
2023/07/14 05:21:13;;;;;;;7.53;2.60;;;;;;;18.23;90.04;100669.25;4930876;29;20199;-70
2023/07/14 05:23:39;;;;;;;5.30;2.63;;;;;;;18.12;91.30;100664.03;4926580;29;20199;-70
2023/07/14 05:26:05;;;;;;;6.30;2.80;;;;;;;18.16;92.23;100663.97;4927926;29;20226;-72
2023/07/14 05:28:32;;;;;;;7.17;2.70;;;;;;;18.11;91.54;100665.81;4929523;29;20310;-72
2023/07/14 05:31:00;;;;;;;4.33;2.47;;;;;;;18.23;91.98;100667.44;4926000;29;20329;-69
2023/07/14 05:33:29;;;;;;;6.30;2.90;;;;;;;18.32;92.26;100653.91;4911349;29;20207;-68
2023/07/14 05:35:56;;;;;;;7.63;2.77;;;;;;;18.38;92.29;100664.53;4927970;29;20230;-68
2023/07/14 05:38:22;;;;;;;6.07;2.93;;;;;;;18.44;93.28;100653.75;4927011;29;20206;-68
2023/07/14 05:40:53;;;;;;;3.07;2.30;;;;;;;18.75;92.00;100647.94;4927197;29;20600;-67
2023/07/14 05:43:26;;;;;;;3.70;2.40;;;;;;;18.88;89.94;100652.22;4926569;29;20202;-67
2023/07/14 05:45:53;;;;;;;7.00;2.60;;;;;;;19.09;88.17;100648.25;4927106;29;20313;-68
2023/07/14 05:48:19;;;;;;;4.33;2.50;;;;;;;19.48;85.62;100649.34;4926969;29;20211;-68
2023/07/14 05:50:46;;;;;;;4.20;2.37;;;;;;;19.87;82.74;100641.44;4928463;29;20225;-68
2023/07/14 05:53:14;;;;;;;3.17;2.37;;;;;;;20.03;80.38;100638.44;4923734;29;20202;-68
2023/07/14 05:55:41;;;;;;;5.60;2.23;;;;;;;20.30;77.32;100649.47;4926956;29;20223;-68
2023/07/14 05:58:07;;;;;;;7.47;2.67;;;;;;;20.62;74.91;100638.03;4912038;29;20199;-71
2023/07/14 06:00:38;;;;;;;3.73;2.40;;;;;;;21.17;71.99;100637.53;4929190;29;20223;-73
2023/07/14 06:03:10;;;;;;;5.40;2.50;;;;;;;21.42;69.68;100639.59;4929665;29;20202;-74
2023/07/14 06:05:37;;;;;;;4.07;2.13;;;;;;;21.40;68.16;100636.06;4927521;29;20258;-68
2023/07/14 06:08:04;;;;;;;5.72;2.03;;;;;;;21.13;69.08;100629.56;4928650;29;20605;-68
2023/07/14 06:10:32;;;;;;;4.70;2.05;;;;;;;21.23;69.44;100628.47;4929948;29;20202;-68
2023/07/14 06:12:58;;;;;;;6.20;2.28;;;;;;;21.02;69.30;100637.03;4914507;29;20199;-68
2023/07/14 06:15:24;;;;;;;5.20;2.35;;;;;;;20.84;70.22;100633.00;4926159;29;20444;-68
2023/07/14 06:17:51;;;;;;;8.40;2.22;;;;;;;21.09;69.08;100617.09;4932345;29;20203;-68
2023/07/14 06:20:17;;;;;;;3.33;1.90;;;;;;;20.74;67.18;100629.63;4928898;29;20246;-68
2023/07/14 06:22:44;;;;;;;5.63;2.00;;;;;;;21.03;64.81;100614.56;4927549;29;20671;-68
2023/07/14 06:25:11;;;;;;;4.78;2.47;;;;;;;21.53;65.27;100610.53;4928659;29;20242;-68
2023/07/14 06:27:37;;;;;;;6.10;1.92;;;;;;;21.70;64.99;100624.44;4930500;29;20290;-68
2023/07/14 06:30:04;;;;;;;5.82;2.10;;;;;;;21.92;64.31;100618.41;4930128;29;20219;-68
2023/07/14 06:32:31;;;;;;;3.47;1.90;;;;;;;21.99;61.75;100615.50;4928402;29;20203;-67
2023/07/14 06:34:57;;;;;;;4.97;2.00;;;;;;;21.95;62.90;100616.50;4927376;29;20229;-68
2023/07/14 06:37:25;;;;;;;3.83;2.22;;;;;;;21.86;63.84;100604.19;4929009;29;20579;-67
2023/07/14 06:39:53;;;;;;;3.42;2.08;;;;;;;22.14;62.65;100603.41;4928879;29;20278;-68
2023/07/14 06:42:19;;;;;;;3.65;2.28;;;;;;;22.27;60.08;100603.91;4919596;29;20215;-67
2023/07/14 06:44:46;;;;;;;3.63;1.95;;;;;;;22.37;58.49;100600.84;4928470;29;20227;-67
2023/07/14 06:47:14;;;;;;;4.65;2.22;;;;;;;22.60;57.88;100604.66;4929962;29;20195;-67
2023/07/14 06:49:41;;;;;;;4.88;1.90;;;;;;;22.45;57.79;100598.81;4928621;29;20222;-68
2023/07/14 06:52:08;;;;;;;3.58;1.85;;;;;;;22.51;57.15;100585.13;4926994;29;20261;-67
2023/07/14 06:54:34;;;;;;;4.68;2.20;;;;;;;22.53;57.42;100587.78;4929135;29;20722;-67
2023/07/14 06:57:01;;;;;;;7.50;1.92;;;;;;;22.49;57.66;100589.69;4930473;29;20472;-68
2023/07/14 06:59:27;;;;;;;5.03;1.92;;;;;;;22.72;57.65;100588.03;4929462;29;20278;-67
2023/07/14 07:01:54;;;;;;;5.95;2.00;;;;;;;22.90;54.88;100590.16;4929231;29;20364;-68
2023/07/14 07:04:21;;;;;;;4.97;2.13;;;;;;;23.09;53.61;100593.97;4928503;29;20274;-68
2023/07/14 07:06:47;;;;;;;4.80;2.25;;;;;;;23.29;53.36;100582.50;4929919;29;20293;-68
2023/07/14 07:09:14;;;;;;;7.22;2.45;;;;;;;23.29;53.37;100587.00;4927908;29;20277;-68
2023/07/14 07:11:40;;;;;;;8.60;2.85;;;;;;;24.02;51.36;100585.19;4928156;29;20207;-70
2023/07/14 07:14:07;;;;;;;8.10;2.35;;;;;;;25.83;48.53;100590.19;4910396;29;20213;-69
2023/07/14 07:16:33;;;;;;;5.57;2.03;;;;;;;27.36;45.19;100580.81;4913296;29;20215;-71
2023/07/14 07:19:00;;;;;;;8.35;2.30;;;;;;;27.76;43.52;100584.13;4927966;29;20286;-68
2023/07/14 07:21:26;;;;;;;5.68;2.30;;;;;;;29.11;39.85;100574.59;4911102;29;20203;-68
2023/07/14 07:23:53;;;;;;;4.60;2.15;;;;;;;30.49;36.78;100574.03;4923568;29;20202;-69
2023/07/14 07:26:19;;;;;;;4.38;2.20;;;;;;;31.49;35.35;100579.94;4926643;29;20198;-68
2023/07/14 07:28:46;;;;;;;11.90;2.88;;;;;;;31.96;33.82;100583.03;4928993;29;20215;-68
2023/07/14 07:31:14;;;;;;;9.55;2.90;;;;;;;32.37;32.67;100580.03;4928747;29;20198;-69
2023/07/14 07:33:42;;;;;;;15.43;2.55;;;;;;;33.11;31.69;100569.84;4912750;29;20218;-68
2023/07/14 07:36:16;;;;;;;8.93;2.17;;;;;;;33.87;30.04;100567.47;4926260;29;20219;-68
2023/07/14 07:38:48;;;;;;;11.15;2.38;;;;;;;33.93;29.12;100564.22;4926753;29;20499;-68
2023/07/14 07:41:17;;;;;;;14.07;2.58;;;;;;;34.12;28.90;100571.84;4925172;29;20203;-68
2023/07/14 07:43:44;;;;;;;13.55;2.45;;;;;;;34.40;28.22;100558.56;4929028;29;20199;-68
2023/07/14 07:46:11;;;;;;;13.43;2.20;;;;;;;34.70;27.24;100563.38;4927962;29;20227;-67
2023/07/14 07:48:40;;;;;;;8.07;1.80;;;;;;;34.43;27.09;100563.84;4926258;29;20293;-68
2023/07/14 07:51:06;;;;;;;9.00;2.25;;;;;;;33.80;28.14;100562.56;4928646;29;20211;-68
2023/07/14 07:53:33;;;;;;;13.60;2.50;;;;;;;34.19;27.86;100556.59;4929062;29;20802;-68
2023/07/14 07:56:01;;;;;;;7.75;2.38;;;;;;;33.72;28.27;100554.06;4927423;29;20246;-68
2023/07/14 07:58:28;;;;;;;12.10;3.42;;;;;;;32.23;29.42;100560.97;4929349;29;20219;-68
2023/07/14 08:00:57;;;;;;;5.53;2.15;;;;;;;31.22;31.73;100551.78;4926920;29;20282;-68
2023/07/14 08:03:24;;;;;;;7.47;2.45;;;;;;;31.60;31.27;100560.00;4930708;29;20210;-68
2023/07/14 08:05:52;;;;;;;4.40;2.05;;;;;;;32.18;31.16;100557.69;4926796;29;20218;-68
2023/07/14 08:08:18;;;;;;;7.57;2.05;;;;;;;31.67;31.93;100553.13;4928036;29;20290;-68
2023/07/14 08:10:45;;;;;;;6.93;2.35;;;;;;;31.72;32.20;100550.09;4929311;29;20665;-69
2023/07/14 08:13:14;;;;;;;5.50;2.17;;;;;;;31.36;32.25;100539.88;4923921;29;20709;-69
2023/07/14 08:15:40;;;;;;;3.97;2.03;;;;;;;31.07;33.25;100540.00;4925227;29;20223;-69
2023/07/14 08:18:07;;;;;;;5.88;2.10;;;;;;;30.74;33.57;100539.56;4928912;29;20602;-68
2023/07/14 08:20:38;;;;;;;6.72;2.38;;;;;;;31.18;32.68;100536.53;4930178;29;20702;-68
2023/07/14 08:23:06;;;;;;;5.53;1.90;;;;;;;30.79;33.06;100537.41;4931783;29;20696;-68
2023/07/14 08:25:32;;;;;;;8.52;2.50;;;;;;;30.18;34.51;100545.09;4931796;29;20226;-67
2023/07/14 08:27:59;;;;;;;5.05;1.80;;;;;;;29.46;35.15;100537.88;4932713;29;20209;-68
2023/07/14 08:30:26;;;;;;;5.03;2.00;;;;;;;29.32;36.64;100543.28;4934389;29;20317;-68
2023/07/14 08:32:52;;;;;;;4.13;1.75;;;;;;;29.36;36.50;100538.50;4931206;29;20209;-69
2023/07/14 08:35:19;;;;;;;6.22;2.20;;;;;;;29.53;36.34;100541.97;4929875;29;20267;-69
2023/07/14 08:37:46;;;;;;;9.15;2.10;;;;;;;29.24;36.54;100541.03;4934524;29;20199;-69
2023/07/14 08:40:17;;;;;;;3.97;2.15;;;;;;;28.95;36.81;100531.00;4941745;29;20856;-69
2023/07/14 08:43:05;;;;;;;4.60;2.10;;;;;;;28.91;37.29;100533.06;4943576;29;20205;-69
2023/07/14 08:45:44;;;;;;;6.90;2.10;;;;;;;29.39;36.69;100538.31;4942450;29;20214;-69
2023/07/14 08:48:21;;;;;;;3.53;1.95;;;;;;;29.69;35.66;100541.00;4954242;29;20666;-69
2023/07/14 08:50:52;;;;;;;4.63;1.90;;;;;;;29.77;35.02;100536.81;4950595;29;20229;-68
2023/07/14 08:53:25;;;;;;;4.68;2.28;;;;;;;29.35;36.12;100534.03;4954701;29;20206;-68
2023/07/14 08:56:03;;;;;;;6.95;2.00;;;;;;;29.19;36.51;100536.81;4920917;29;20218;-69
2023/07/14 08:58:35;;;;;;;5.15;1.98;;;;;;;28.88;35.23;100533.25;4929470;29;20198;-69
2023/07/14 09:01:14;;;;;;;5.22;1.60;;;;;;;28.81;35.26;100533.63;4928045;29;20592;-68
2023/07/14 09:03:44;;;;;;;5.13;1.65;;;;;;;29.10;33.81;100531.91;4925277;29;20561;-68
2023/07/14 09:06:35;;;;;;;2.85;1.80;;;;;;;29.53;33.82;100530.16;4927834;29;20231;-68
2023/07/14 09:09:03;;;;;;;7.93;1.60;;;;;;;29.92;32.28;100535.81;4927599;29;20218;-68
2023/07/14 09:11:57;;;;;;;4.72;1.88;;;;;;;30.18;32.53;100534.16;4937123;29;20579;-68
2023/07/14 09:14:37;;;;;;;4.15;1.75;;;;;;;30.62;31.53;100527.63;4938206;29;20392;-68
2023/07/14 09:17:34;;;;;;;2.80;1.70;;;;;;;30.77;31.48;100531.16;4929036;29;20691;-68
2023/07/14 09:20:27;;;;;;;4.28;1.58;;;;;;;30.71;30.86;100521.53;4929192;29;20199;-67
2023/07/14 09:23:16;;;;;;;4.35;1.90;;;;;;;30.78;31.58;100521.97;4931361;29;20207;-67
2023/07/14 09:25:55;;;;;;;4.90;1.58;;;;;;;30.64;31.74;100516.56;4928417;29;20326;-68
2023/07/14 09:28:30;;;;;;;6.70;1.52;;;;;;;30.55;31.47;100508.00;4926892;29;20235;-68
2023/07/14 09:31:05;;;;;;;3.40;1.63;;;;;;;30.46;31.12;100505.88;4930619;29;20207;-67
2023/07/14 09:33:54;;;;;;;6.28;2.00;;;;;;;30.39;32.10;100500.91;4912795;29;20231;-68
2023/07/14 09:36:21;;;;;;;4.43;1.80;;;;;;;30.42;31.78;100490.69;4925535;29;20215;-69
2023/07/14 09:38:52;;;;;;;2.88;1.60;;;;;;;30.50;31.80;100490.16;4933958;29;20549;-68
2023/07/14 09:41:24;;;;;;;2.80;1.58;;;;;;;30.49;31.38;100497.47;4926167;29;20294;-68
2023/07/14 09:43:57;;;;;;;5.80;1.98;;;;;;;30.48;31.36;100500.31;4928281;29;20203;-68
2023/07/14 09:46:24;;;;;;;5.30;1.90;;;;;;;30.98;31.13;100494.13;4928617;29;20209;-67
2023/07/14 09:48:58;;;;;;;4.45;1.90;;;;;;;31.08;31.45;100489.75;4925757;29;20203;-68
2023/07/14 09:51:25;;;;;;;4.50;2.05;;;;;;;31.15;31.05;100495.69;4929133;29;20718;-69
2023/07/14 09:54:07;;;;;;;4.55;1.60;;;;;;;30.83;31.05;100498.81;4929203;29;20199;-70
2023/07/14 09:56:42;;;;;;;4.13;1.80;;;;;;;30.82;31.43;100496.16;4926541;29;20297;-69
2023/07/14 09:59:21;;;;;;;4.40;2.00;;;;;;;30.66;31.42;100492.75;4922921;29;20206;-69
2023/07/14 10:01:52;;;;;;;6.07;1.88;;;;;;;30.25;32.09;100494.53;4926571;29;20392;-70
2023/07/14 10:04:19;;;;;;;6.07;1.70;;;;;;;30.36;31.97;100484.72;4920347;29;20230;-71
2023/07/14 10:06:50;;;;;;;4.25;1.70;;;;;;;30.37;31.82;100487.34;4925474;29;20199;-70
2023/07/14 10:09:20;;;;;;;5.50;1.95;;;;;;;30.01;31.68;100487.03;4917529;29;20512;-71
2023/07/14 10:11:49;;;;;;;7.60;1.60;;;;;;;30.45;31.83;100493.19;4929288;29;20253;-69
2023/07/14 10:14:35;;;;;;;3.25;2.03;;;;;;;30.88;31.24;100483.94;4924523;29;20215;-69
2023/07/14 10:17:04;;;;;;;6.80;1.80;;;;;;;31.37;30.40;100485.00;4913237;29;20206;-69
2023/07/14 10:19:37;;;;;;;5.47;2.10;;;;;;;31.45;29.99;100487.19;4922693;29;20255;-70
2023/07/14 10:22:14;;;;;;;3.55;1.80;;;;;;;31.60;29.38;100466.91;4926125;29;20206;-69
2023/07/14 10:24:45;;;;;;;5.80;1.80;;;;;;;31.49;30.02;100477.75;4949218;23;20234;-67
2023/07/14 10:27:23;;;;;;;5.38;1.88;;;;;;;31.46;29.66;100461.56;4928685;29;20211;-69
2023/07/14 10:30:05;;;;;;;2.30;1.88;;;;;;;31.57;29.46;100466.25;4919726;29;20229;-66
2023/07/14 10:32:49;;;;;;;4.75;1.80;;;;;;;31.52;28.66;100458.38;4925162;29;20473;-71
2023/07/14 10:35:27;;;;;;;4.15;1.77;;;;;;;31.59;28.67;100451.47;4936352;29;20226;-69
2023/07/14 10:38:22;;;;;;;4.15;1.80;;;;;;;31.63;29.23;100458.50;4937925;29;20281;-72
2023/07/14 10:41:02;;;;;;;3.40;1.80;;;;;;;31.64;29.42;100459.38;4952841;29;20190;-70
2023/07/14 10:43:39;;;;;;;4.05;1.63;;;;;;;31.59;29.60;100451.47;4951179;28;20264;-67
2023/07/14 10:46:20;;;;;;;5.40;1.90;;;;;;;31.02;30.08;100448.28;4952459;29;20225;-70
2023/07/14 10:48:55;;;;;;;4.13;1.77;;;;;;;30.71;30.70;100444.06;4949899;29;20202;-68
2023/07/14 10:51:46;;;;;;;5.18;1.90;;;;;;;30.51;30.66;100438.09;4944405;29;20210;-69
2023/07/14 10:54:17;;;;;;;2.55;1.98;;;;;;;29.98;31.59;100443.53;4950596;29;20198;-69
2023/07/14 10:56:57;;;;;;;4.78;1.90;;;;;;;29.76;31.44;100441.34;4952249;29;20294;-70
2023/07/14 10:59:29;;;;;;;7.00;2.20;;;;;;;29.10;32.88;100434.59;4952162;29;20285;-69
2023/07/14 11:02:11;;;;;;;8.05;2.50;;;;;;;28.91;33.64;100436.75;4950086;29;20202;-69
2023/07/14 11:04:42;;;;;;;6.70;2.72;;;;;;;28.57;33.23;100426.97;4940867;29;20215;-69
2023/07/14 11:07:16;;;;;;;6.55;1.80;;;;;;;28.09;34.52;100424.31;4932627;29;20648;-69
2023/07/14 11:09:43;;;;;;;6.60;2.53;;;;;;;28.02;35.30;100435.66;4933152;29;20215;-67
2023/07/14 11:12:32;;;;;;;7.30;1.67;;;;;;;28.00;35.04;100432.13;4947445;29;20205;-71
2023/07/14 11:15:12;;;;;;;3.55;2.03;;;;;;;28.03;35.40;100431.97;4951685;29;20218;-69
2023/07/14 11:17:57;;;;;;;4.25;1.73;;;;;;;28.05;35.41;100436.38;4946827;29;20203;-68
2023/07/14 11:20:38;;;;;;;3.70;1.67;;;;;;;27.94;34.43;100433.38;4932042;29;20336;-69
2023/07/14 11:23:43;;;;;;;4.55;1.90;;;;;;;28.11;35.52;100429.69;4941080;29;20206;-69
2023/07/14 11:26:21;;;;;;;4.95;1.85;;;;;;;28.33;34.84;100419.28;4949474;29;20225;-70
2023/07/14 11:29:22;;;;;;;3.50;1.55;;;;;;;28.28;34.32;100423.25;4931126;29;20209;-71
2023/07/14 11:31:53;;;;;;;5.18;1.88;;;;;;;28.12;35.54;100404.22;4928235;29;20252;-69
2023/07/14 11:34:29;;;;;;;2.92;1.73;;;;;;;28.16;35.11;100385.84;4927018;29;20579;-70
2023/07/14 11:37:24;;;;;;;4.55;1.90;;;;;;;27.83;35.00;100356.03;4932413;29;20281;-71
2023/07/14 11:39:56;;;;;;;6.03;1.80;;;;;;;27.40;35.48;100313.09;4938752;29;20278;-69